Time;durP1;ratioP1;P1;durP2;ratioP2;P2;SDS_P1;SDS_P2;PMS_P1;PMS_P2;Temp;Humidity;BMP_temperature;BMP_pressure;BME280_temperature;BME280_humidity;BME280_pressure;Samples;Min_cycle;Max_cycle;Signal;HPM_P1;HPM_P2
2023/01/11 00:01:04;;;;;;;4.10;2.00;;;;;;;0.81;100.00;100997.28;5022283;28;20203;-73
2023/01/11 00:03:32;;;;;;;2.43;1.60;;;;;;;0.74;100.00;101007.44;5023418;28;20764;-71
2023/01/11 00:05:59;;;;;;;5.67;1.77;;;;;;;0.70;100.00;100992.81;5024661;28;20200;-73
2023/01/11 00:08:27;;;;;;;3.07;1.83;;;;;;;0.68;100.00;100993.59;5025846;28;20214;-73
2023/01/11 00:10:54;;;;;;;6.53;1.83;;;;;;;0.63;100.00;100987.50;5027609;28;20209;-73
2023/01/11 00:13:21;;;;;;;2.70;1.80;;;;;;;0.57;100.00;100976.28;5030074;28;20294;-74
2023/01/11 00:15:47;;;;;;;1.30;1.10;;;;;;;0.55;100.00;100979.66;5023161;28;20778;-73
2023/01/11 00:18:13;;;;;;;1.77;1.60;;;;;;;0.50;100.00;100974.44;5024572;28;20205;-71
2023/01/11 00:20:41;;;;;;;2.03;1.60;;;;;;;0.48;100.00;100973.53;5026466;28;20200;-73
2023/01/11 00:23:08;;;;;;;4.83;1.83;;;;;;;0.45;100.00;100965.78;5023701;28;20226;-72
2023/01/11 00:25:35;;;;;;;2.60;1.53;;;;;;;0.44;100.00;100961.50;5025239;28;20228;-73
2023/01/11 00:28:01;;;;;;;2.13;1.43;;;;;;;0.43;100.00;100962.31;5029046;28;20204;-74
2023/01/11 00:30:28;;;;;;;2.53;1.73;;;;;;;0.48;100.00;100955.56;5025675;28;20224;-74
2023/01/11 00:32:56;;;;;;;4.80;1.83;;;;;;;0.43;100.00;100954.63;5024082;28;20583;-74
2023/01/11 00:35:23;;;;;;;2.40;1.80;;;;;;;0.44;100.00;100951.22;5024599;28;20213;-73
2023/01/11 00:37:51;;;;;;;4.17;1.90;;;;;;;0.47;100.00;100947.84;5027124;28;20204;-74
2023/01/11 00:40:18;;;;;;;13.20;2.83;;;;;;;0.49;100.00;100947.06;5025760;28;20208;-72
2023/01/11 00:48:12;;;;;;;2.23;1.60;;;;;;;0.56;100.00;100941.22;5027819;28;20214;-74
2023/01/11 00:50:40;;;;;;;7.60;2.20;;;;;;;0.63;100.00;100937.03;5027082;28;20210;-73
2023/01/11 00:53:09;;;;;;;4.13;2.27;;;;;;;0.67;100.00;100933.72;5030023;28;20243;-73
2023/01/11 00:55:35;;;;;;;6.90;1.90;;;;;;;0.74;100.00;100925.28;5029832;28;20588;-73
2023/01/11 00:58:04;;;;;;;5.53;2.60;;;;;;;0.78;100.00;100923.66;5028346;28;20204;-72
2023/01/11 01:00:31;;;;;;;2.77;1.87;;;;;;;0.79;100.00;100925.38;5028570;28;20218;-72
2023/01/11 01:02:57;;;;;;;6.00;2.17;;;;;;;0.83;100.00;100919.47;5029307;28;20651;-73
2023/01/11 01:05:24;;;;;;;5.13;2.53;;;;;;;0.91;100.00;100917.03;5031652;28;20216;-73
2023/01/11 01:07:51;;;;;;;6.13;2.40;;;;;;;0.93;100.00;100913.66;5028744;28;20549;-73
2023/01/11 01:10:19;;;;;;;3.80;2.10;;;;;;;0.98;100.00;100913.72;5028109;28;20215;-72
2023/01/11 01:15:31;;;;;;;4.90;2.73;;;;;;;1.08;100.00;100912.19;5023799;28;20207;-73
2023/01/11 01:17:57;;;;;;;5.67;2.57;;;;;;;1.13;100.00;100914.00;5027508;28;20231;-74
2023/01/11 01:20:24;;;;;;;3.57;2.10;;;;;;;1.13;100.00;100908.88;5028443;28;20258;-72
2023/01/11 01:22:51;;;;;;;5.20;2.23;;;;;;;1.16;100.00;100902.91;5027864;28;20738;-72
2023/01/11 01:25:19;;;;;;;5.00;1.97;;;;;;;1.18;100.00;100903.81;5026446;28;20204;-72
2023/01/11 01:27:46;;;;;;;5.40;2.00;;;;;;;1.24;100.00;100908.19;5030560;28;20207;-73
2023/01/11 01:30:13;;;;;;;4.90;2.20;;;;;;;1.24;100.00;100903.06;5029736;28;20207;-74
2023/01/11 01:32:39;;;;;;;6.77;2.63;;;;;;;1.28;100.00;100899.69;5026202;28;20232;-73
2023/01/11 01:35:06;;;;;;;4.73;2.03;;;;;;;1.28;100.00;100902.25;5027601;28;20579;-74
2023/01/11 01:37:33;;;;;;;3.63;2.17;;;;;;;1.29;100.00;100896.28;5026479;28;20208;-73
2023/01/11 01:39:59;;;;;;;3.00;2.13;;;;;;;1.33;100.00;100887.78;5026807;28;20208;-74
2023/01/11 01:42:27;;;;;;;5.87;2.23;;;;;;;1.41;100.00;100885.34;5027071;28;20234;-73
2023/01/11 01:44:56;;;;;;;4.23;2.30;;;;;;;1.44;100.00;100883.69;5029395;28;20219;-73
2023/01/11 01:47:27;;;;;;;6.50;2.57;;;;;;;1.46;100.00;100887.13;5024989;28;20283;-73
2023/01/11 01:49:54;;;;;;;3.70;1.90;;;;;;;1.47;100.00;100882.84;5025867;28;20641;-74
2023/01/11 01:52:27;;;;;;;7.13;2.40;;;;;;;1.47;100.00;100881.13;5027356;28;20231;-73
2023/01/11 01:54:56;;;;;;;4.40;2.10;;;;;;;1.46;100.00;100876.84;5028577;28;20206;-72
2023/01/11 01:57:28;;;;;;;3.37;1.93;;;;;;;1.46;100.00;100870.84;5026102;28;20200;-74
2023/01/11 01:59:57;;;;;;;3.87;1.70;;;;;;;1.43;100.00;100869.09;5026406;28;20204;-73
2023/01/11 02:02:25;;;;;;;5.83;2.33;;;;;;;1.45;100.00;100871.69;5025990;28;20224;-74
2023/01/11 02:04:54;;;;;;;3.53;2.00;;;;;;;1.45;100.00;100869.97;5026696;28;20565;-73
2023/01/11 02:07:25;;;;;;;4.03;2.30;;;;;;;1.45;100.00;100861.41;5025860;28;20644;-73
2023/01/11 02:09:56;;;;;;;6.80;2.63;;;;;;;1.50;100.00;100857.22;5023977;28;20683;-71
2023/01/11 02:12:25;;;;;;;9.63;2.23;;;;;;;1.52;100.00;100853.81;5026293;28;20231;-73
2023/01/11 02:14:54;;;;;;;5.60;2.50;;;;;;;1.55;100.00;100842.72;5025894;28;20211;-73
2023/01/11 02:17:21;;;;;;;3.73;2.33;;;;;;;1.57;100.00;100838.47;5024673;28;20572;-73
2023/01/11 02:19:57;;;;;;;5.23;2.23;;;;;;;1.60;100.00;100835.94;5024112;28;20255;-72
2023/01/11 02:22:54;;;;;;;3.80;2.27;;;;;;;1.62;100.00;100826.53;5022895;28;20231;-73
2023/01/11 02:25:45;;;;;;;2.93;2.30;;;;;;;1.67;100.00;100826.59;5021630;28;20218;-73
2023/01/11 02:28:17;;;;;;;3.43;2.30;;;;;;;1.72;100.00;100818.94;5024670;28;20204;-74
2023/01/11 02:30:52;;;;;;;4.13;1.90;;;;;;;1.78;100.00;100824.19;5032468;28;20208;-72
2023/01/11 02:33:25;;;;;;;4.93;2.23;;;;;;;1.79;100.00;100823.31;5025666;28;20204;-72
2023/01/11 02:36:01;;;;;;;5.20;2.20;;;;;;;1.79;100.00;100816.47;5024815;28;20207;-74
2023/01/11 02:38:32;;;;;;;3.20;2.00;;;;;;;1.82;100.00;100813.94;5025789;28;20294;-74
2023/01/11 02:41:07;;;;;;;4.60;2.30;;;;;;;1.85;100.00;100811.41;5024398;28;20206;-72
2023/01/11 02:46:34;;;;;;;5.47;2.47;;;;;;;1.88;100.00;100795.16;5024445;28;20423;-74
2023/01/11 02:49:08;;;;;;;3.87;2.10;;;;;;;1.91;100.00;100792.63;5025261;28;20779;-73
2023/01/11 02:51:39;;;;;;;4.97;2.30;;;;;;;1.92;100.00;100789.22;5024327;28;20227;-74
2023/01/11 02:54:08;;;;;;;4.67;2.40;;;;;;;1.96;100.00;100777.25;5025621;28;20707;-74
2023/01/11 02:56:40;;;;;;;4.13;2.10;;;;;;;1.99;100.00;100779.88;5022863;28;20208;-73
2023/01/11 02:59:10;;;;;;;5.43;2.40;;;;;;;1.99;100.00;100770.44;5024582;28;20207;-73
2023/01/11 03:01:44;;;;;;;5.80;2.63;;;;;;;1.98;100.00;100771.28;5024276;28;20311;-73
2023/01/11 03:04:22;;;;;;;7.30;2.20;;;;;;;1.95;100.00;100766.09;5028357;28;20676;-73
2023/01/11 03:06:53;;;;;;;2.93;2.40;;;;;;;1.95;100.00;100760.09;5024273;28;20204;-73
2023/01/11 03:09:29;;;;;;;2.17;1.90;;;;;;;1.96;100.00;100754.09;5012497;28;20203;-73
2023/01/11 03:15:07;;;;;;;2.10;1.63;;;;;;;1.93;100.00;100759.22;5028062;28;20214;-72
2023/01/11 03:17:45;;;;;;;6.87;2.00;;;;;;;1.87;100.00;100754.88;5025943;28;20242;-72
2023/01/11 03:20:20;;;;;;;2.77;2.00;;;;;;;1.85;100.00;100754.84;5027149;28;20661;-74
2023/01/11 03:23:02;;;;;;;5.70;2.23;;;;;;;1.84;100.00;100741.97;5024688;28;20246;-73
2023/01/11 03:25:34;;;;;;;3.63;2.47;;;;;;;1.80;100.00;100737.66;5022923;28;20208;-73
2023/01/11 03:28:07;;;;;;;3.37;1.93;;;;;;;1.77;100.00;100733.31;5022052;28;20657;-73
2023/01/11 03:30:40;;;;;;;6.17;2.23;;;;;;;1.76;100.00;100728.16;5023925;28;20204;-73
2023/01/11 03:33:11;;;;;;;11.50;2.10;;;;;;;1.75;100.00;100732.44;5024522;28;20216;-73
2023/01/11 03:35:41;;;;;;;6.33;2.07;;;;;;;1.73;100.00;100728.13;5026264;28;20208;-73
2023/01/11 03:38:12;;;;;;;3.03;1.73;;;;;;;1.72;100.00;100723.84;5023997;28;20568;-74
2023/01/11 03:40:43;;;;;;;5.53;2.07;;;;;;;1.70;100.00;100722.09;5024228;28;20584;-74
2023/01/11 03:43:12;;;;;;;3.63;1.80;;;;;;;1.74;100.00;100722.13;5025499;28;20272;-73
2023/01/11 03:45:45;;;;;;;10.27;2.53;;;;;;;1.70;100.00;100721.25;5023383;28;20225;-73
2023/01/11 03:48:15;;;;;;;5.87;2.10;;;;;;;1.72;100.00;100713.53;5021810;28;20199;-74
2023/01/11 03:50:42;;;;;;;3.63;2.20;;;;;;;1.76;100.00;100711.03;5025497;28;20834;-73
2023/01/11 03:53:11;;;;;;;3.93;2.13;;;;;;;1.74;100.00;100709.28;5024297;28;20684;-73
2023/01/11 03:55:40;;;;;;;6.33;2.00;;;;;;;1.72;100.00;100706.69;5020925;28;20200;-74
2023/01/11 03:58:07;;;;;;;4.20;1.73;;;;;;;1.74;100.00;100701.56;5024282;28;20199;-73
2023/01/11 04:00:36;;;;;;;4.40;2.17;;;;;;;1.74;100.00;100699.00;5026051;28;20754;-74
2023/01/11 04:03:04;;;;;;;4.40;2.20;;;;;;;1.76;100.00;100690.47;5024528;28;20226;-74
2023/01/11 04:05:31;;;;;;;2.77;1.90;;;;;;;1.78;100.00;100690.50;5024805;28;20219;-72
2023/01/11 04:07:58;;;;;;;3.77;2.03;;;;;;;1.83;100.00;100678.53;5023920;28;20204;-72
2023/01/11 04:10:24;;;;;;;4.57;1.87;;;;;;;1.87;100.00;100676.00;5021912;28;20211;-74
2023/01/11 04:12:50;;;;;;;2.90;1.70;;;;;;;1.94;100.00;100671.78;5025277;28;20230;-73
2023/01/11 04:15:17;;;;;;;5.43;2.43;;;;;;;1.98;100.00;100670.13;5024499;28;20212;-73
2023/01/11 04:17:44;;;;;;;3.63;2.30;;;;;;;1.99;100.00;100657.28;5024597;28;20206;-72
2023/01/11 04:20:12;;;;;;;3.93;2.33;;;;;;;2.03;100.00;100655.59;5022475;28;20203;-72
2023/01/11 04:22:38;;;;;;;6.87;2.60;;;;;;;2.07;100.00;100644.47;5024264;28;20220;-73
2023/01/11 04:25:07;;;;;;;6.00;2.60;;;;;;;2.09;100.00;100653.06;5024661;28;20224;-73
2023/01/11 04:27:34;;;;;;;3.93;2.10;;;;;;;2.12;100.00;100650.53;5026870;28;20200;-73
2023/01/11 04:30:00;;;;;;;6.47;2.30;;;;;;;2.15;100.00;100663.41;5027441;28;20211;-72
2023/01/11 04:32:26;;;;;;;3.33;2.03;;;;;;;2.18;100.00;100654.84;5027663;28;20228;-73
2023/01/11 04:34:53;;;;;;;4.40;2.13;;;;;;;2.20;100.00;100648.00;5024034;28;20200;-73
2023/01/11 04:37:20;;;;;;;5.70;2.03;;;;;;;2.23;100.00;100640.31;5025908;28;20196;-73
2023/01/11 04:39:47;;;;;;;5.70;1.97;;;;;;;2.25;100.00;100652.38;5029130;28;20262;-73
2023/01/11 04:42:18;;;;;;;3.67;2.20;;;;;;;2.29;100.00;100645.53;5025841;28;20250;-73
2023/01/11 04:44:45;;;;;;;4.97;2.40;;;;;;;2.31;100.00;100646.41;5011784;28;20200;-70
2023/01/11 04:47:11;;;;;;;5.40;2.17;;;;;;;2.34;100.00;100640.41;5025992;28;20384;-73
2023/01/11 04:49:38;;;;;;;4.17;1.97;;;;;;;2.36;100.00;100631.00;5028559;28;20208;-74
2023/01/11 04:52:04;;;;;;;4.57;1.90;;;;;;;2.39;100.00;100634.47;5028359;28;20227;-74
2023/01/11 04:54:32;;;;;;;4.20;2.37;;;;;;;2.43;100.00;100628.47;5026712;28;20669;-73
2023/01/11 04:56:59;;;;;;;6.97;2.40;;;;;;;2.46;100.00;100631.09;5029097;28;20212;-73
2023/01/11 04:59:25;;;;;;;4.80;2.43;;;;;;;2.50;100.00;100629.41;5027854;28;20207;-71
2023/01/11 05:01:52;;;;;;;3.70;2.00;;;;;;;2.51;100.00;100625.94;5031896;28;20232;-73
2023/01/11 05:04:18;;;;;;;5.27;2.10;;;;;;;2.54;100.00;100625.13;5027714;28;20196;-72
2023/01/11 05:06:45;;;;;;;5.40;2.70;;;;;;;2.55;100.00;100626.84;5029850;28;20219;-74
2023/01/11 05:09:13;;;;;;;5.97;2.50;;;;;;;2.57;100.00;100617.41;5025259;28;20200;-73
2023/01/11 05:11:41;;;;;;;4.07;2.40;;;;;;;2.60;100.00;100618.31;5024761;28;20216;-73
2023/01/11 05:14:08;;;;;;;6.93;2.80;;;;;;;2.61;100.00;100616.59;5029706;28;20201;-74
2023/01/11 05:16:35;;;;;;;3.67;2.63;;;;;;;2.61;100.00;100608.88;5027301;28;20561;-73
2023/01/11 05:19:01;;;;;;;3.27;2.27;;;;;;;2.61;100.00;100616.59;5027938;28;20568;-74
2023/01/11 05:21:31;;;;;;;4.87;2.13;;;;;;;2.60;100.00;100609.72;5025192;28;20219;-73
2023/01/11 05:23:58;;;;;;;5.80;2.17;;;;;;;2.58;100.00;100601.97;5025439;28;20203;-72
2023/01/11 05:26:26;;;;;;;3.40;1.80;;;;;;;2.58;100.00;100599.41;5027809;28;20230;-71
2023/01/11 05:28:55;;;;;;;5.43;2.20;;;;;;;2.57;100.00;100599.38;5022924;28;20336;-71
2023/01/11 05:31:22;;;;;;;3.50;1.90;;;;;;;2.56;100.00;100595.09;5023613;28;20719;-73
2023/01/11 05:33:49;;;;;;;4.80;1.87;;;;;;;2.59;100.00;100595.13;5020955;28;20227;-73
2023/01/11 05:36:18;;;;;;;5.50;2.20;;;;;;;2.59;100.00;100584.84;5025965;28;20207;-74
2023/01/11 05:38:45;;;;;;;3.80;2.33;;;;;;;2.60;100.00;100578.81;5025309;28;20588;-73
2023/01/11 05:41:12;;;;;;;4.63;2.50;;;;;;;2.62;100.00;100572.84;5023845;28;20550;-74
2023/01/11 05:45:27;;;;;;;6.27;2.63;;;;;;;2.68;100.00;100581.44;5028861;28;20200;-71
2023/01/11 05:46:26;;;;;;;9.80;2.40;;;;;;;2.71;100.00;100578.88;5020833;28;20685;-74
2023/01/11 05:48:54;;;;;;;35.07;16.13;;;;;;;2.73;100.00;100575.47;5029860;28;20290;-73
2023/01/11 05:51:21;;;;;;;19.50;8.73;;;;;;;2.78;100.00;100575.47;5031511;28;20589;-72
2023/01/11 05:53:48;;;;;;;9.53;5.20;;;;;;;2.80;100.00;100576.38;5028988;28;20684;-75
2023/01/11 05:56:14;;;;;;;4.97;2.20;;;;;;;2.80;100.00;100574.66;5027496;28;20609;-74
2023/01/11 05:58:41;;;;;;;8.97;2.70;;;;;;;2.87;100.00;100572.97;5027496;28;20215;-72
2023/01/11 06:01:07;;;;;;;3.33;2.23;;;;;;;2.90;100.00;100567.81;5027802;28;20214;-73
2023/01/11 06:03:35;;;;;;;6.50;2.23;;;;;;;2.91;100.00;100553.22;5023694;28;20207;-73
2023/01/11 06:06:02;;;;;;;2.40;1.80;;;;;;;2.95;100.00;100552.38;5024791;28;20291;-73
2023/01/11 06:08:29;;;;;;;5.73;2.40;;;;;;;2.97;100.00;100559.28;5026606;28;20207;-74
2023/01/11 06:10:56;;;;;;;6.07;2.63;;;;;;;3.00;100.00;100550.69;5025852;28;20197;-75
2023/01/11 06:13:26;;;;;;;2.97;2.37;;;;;;;3.03;100.00;100554.13;5026077;28;20224;-75
2023/01/11 06:15:53;;;;;;;6.10;2.40;;;;;;;3.07;100.00;100557.56;5026141;28;20200;-74
2023/01/11 06:18:20;;;;;;;4.70;2.90;;;;;;;3.08;100.00;100550.69;5029326;28;20671;-71
2023/01/11 06:20:50;;;;;;;7.77;3.70;;;;;;;3.10;100.00;100544.72;5026647;28;20246;-74
2023/01/11 06:23:17;;;;;;;6.67;2.40;;;;;;;3.11;100.00;100546.41;5027087;28;20233;-74
2023/01/11 06:25:44;;;;;;;4.10;1.83;;;;;;;3.15;100.00;100547.28;5027992;28;20208;-75
2023/01/11 06:28:12;;;;;;;6.30;2.13;;;;;;;3.18;100.00;100555.03;5027601;28;20669;-73
2023/01/11 06:30:39;;;;;;;4.60;1.70;;;;;;;3.20;100.00;100543.00;5017508;28;21024;-74
2023/01/11 06:33:05;;;;;;;3.57;2.10;;;;;;;3.23;100.00;100543.88;5024379;28;20215;-73
2023/01/11 06:35:32;;;;;;;5.50;1.50;;;;;;;3.26;100.00;100547.34;5027041;28;20552;-74
2023/01/11 06:38:00;;;;;;;5.33;2.03;;;;;;;3.27;100.00;100544.75;5032138;28;20489;-73
2023/01/11 06:40:28;;;;;;;4.30;1.80;;;;;;;3.30;100.00;100555.06;5030252;28;20665;-74
2023/01/11 06:42:55;;;;;;;5.53;1.73;;;;;;;3.33;100.00;100546.50;5016881;28;20243;-73
2023/01/11 06:45:21;;;;;;;5.20;1.80;;;;;;;3.35;100.00;100544.78;5015673;28;20200;-74
2023/01/11 06:47:48;;;;;;;2.53;1.50;;;;;;;3.36;100.00;100547.38;5023123;28;20297;-73
2023/01/11 06:50:15;;;;;;;2.77;1.50;;;;;;;3.40;100.00;100548.22;5018131;28;20199;-74
2023/01/11 06:52:42;;;;;;;3.93;1.50;;;;;;;3.43;100.00;100550.81;5028273;28;20216;-73
2023/01/11 06:55:10;;;;;;;4.57;1.70;;;;;;;3.44;100.00;100551.69;5029409;28;20215;-74
2023/01/11 06:57:36;;;;;;;5.37;1.97;;;;;;;3.44;100.00;100546.53;5027436;28;20202;-74
2023/01/11 07:00:03;;;;;;;4.70;1.90;;;;;;;3.43;100.00;100548.25;5028514;28;20219;-75
2023/01/11 07:02:30;;;;;;;5.77;2.40;;;;;;;3.44;100.00;100552.53;5024544;28;20219;-72
2023/01/11 07:04:56;;;;;;;3.77;2.33;;;;;;;3.45;100.00;100558.53;5028843;28;20597;-76
2023/01/11 07:07:23;;;;;;;3.63;1.77;;;;;;;3.46;100.00;100560.25;5031301;28;20250;-74
2023/01/11 07:09:49;;;;;;;2.43;1.93;;;;;;;3.47;100.00;100562.84;5029909;28;20204;-75
2023/01/11 07:12:17;;;;;;;5.00;2.27;;;;;;;3.48;100.00;100559.41;5034026;28;20220;-75
2023/01/11 07:14:43;;;;;;;5.60;2.63;;;;;;;3.49;100.00;100560.28;5027346;28;20285;-74
2023/01/11 07:17:09;;;;;;;4.20;2.63;;;;;;;3.52;100.00;100565.44;5027623;28;20200;-74
2023/01/11 07:19:36;;;;;;;3.47;1.90;;;;;;;3.53;100.00;100567.16;5029230;28;20214;-75
2023/01/11 07:22:02;;;;;;;3.13;2.20;;;;;;;3.54;100.00;100569.75;5027899;28;20237;-73
2023/01/11 07:24:28;;;;;;;4.13;2.10;;;;;;;3.56;100.00;100573.16;5027317;28;20290;-74
2023/01/11 07:26:58;;;;;;;3.97;1.87;;;;;;;3.58;100.00;100579.19;5026010;28;20216;-74
2023/01/11 07:29:26;;;;;;;7.60;2.30;;;;;;;3.58;100.00;100576.59;5028354;28;20618;-74
2023/01/11 07:31:52;;;;;;;5.57;2.33;;;;;;;3.59;100.00;100583.50;5026927;28;20227;-74
2023/01/11 07:34:19;;;;;;;3.43;1.80;;;;;;;3.64;100.00;100582.63;5028161;28;20224;-73
2023/01/11 07:36:45;;;;;;;4.30;1.70;;;;;;;3.64;100.00;100582.63;5028215;28;20204;-74
2023/01/11 07:39:11;;;;;;;6.10;2.07;;;;;;;3.63;100.00;100570.63;5027096;28;20194;-74
2023/01/11 07:44:22;;;;;;;5.17;2.20;;;;;;;3.65;100.00;100567.16;5026682;28;20354;-74
2023/01/11 07:46:50;;;;;;;3.37;2.10;;;;;;;3.68;100.00;100566.34;5031050;28;20274;-74
2023/01/11 07:49:16;;;;;;;3.13;2.23;;;;;;;3.69;100.00;100560.28;5028603;28;20208;-74
2023/01/11 07:51:43;;;;;;;3.47;2.10;;;;;;;3.72;100.00;100560.31;5027270;28;20215;-73
2023/01/11 07:54:09;;;;;;;4.37;1.93;;;;;;;3.76;100.00;100564.59;5028366;28;20653;-73
2023/01/11 07:56:35;;;;;;;5.23;2.30;;;;;;;3.79;100.00;100554.28;5026953;28;20203;-74
2023/01/11 07:59:02;;;;;;;5.63;1.67;;;;;;;3.81;100.00;100562.03;5026812;28;20215;-75
2023/01/11 08:01:28;;;;;;;4.23;1.90;;;;;;;3.82;100.00;100554.31;5025728;28;20226;-74
2023/01/11 08:03:56;;;;;;;4.97;2.17;;;;;;;3.85;100.00;100558.59;5027006;28;20668;-74
2023/01/11 08:06:22;;;;;;;4.00;1.73;;;;;;;3.86;100.00;100556.00;5024224;28;20227;-74
2023/01/11 08:08:49;;;;;;;5.53;2.13;;;;;;;3.89;100.00;100555.16;5024627;28;20195;-74
2023/01/11 08:16:43;;;;;;;4.77;1.67;;;;;;;3.97;100.00;100558.59;5027938;28;20199;-74
2023/01/11 08:19:11;;;;;;;2.67;1.33;;;;;;;4.01;100.00;100551.72;5029351;28;20661;-74
2023/01/11 08:21:37;;;;;;;2.47;1.50;;;;;;;4.04;100.00;100552.56;5009327;28;20266;-75
2023/01/11 08:24:04;;;;;;;4.33;1.80;;;;;;;4.09;100.00;100548.25;5027467;28;20202;-75
2023/01/11 08:26:30;;;;;;;2.77;1.80;;;;;;;4.11;100.00;100541.38;5025785;28;20215;-72
2023/01/11 08:28:57;;;;;;;3.23;1.93;;;;;;;4.15;100.00;100544.81;5028095;28;20203;-75
2023/01/11 08:31:24;;;;;;;4.33;2.87;;;;;;;4.18;100.00;100545.66;5025917;28;20708;-74
2023/01/11 08:33:51;;;;;;;4.00;2.87;;;;;;;4.21;100.00;100539.66;5028468;28;20575;-72
2023/01/11 08:36:19;;;;;;;4.33;2.10;;;;;;;4.24;100.00;100542.25;5027574;28;20204;-73
2023/01/11 08:38:45;;;;;;;3.17;1.80;;;;;;;4.28;100.00;100537.94;5027602;28;20215;-75
2023/01/11 08:41:13;;;;;;;7.83;1.73;;;;;;;4.30;100.00;100528.47;5024728;28;20238;-75
2023/01/11 08:43:41;;;;;;;1.93;1.70;;;;;;;4.33;100.00;100523.31;5025182;28;20200;-75
2023/01/11 08:46:08;;;;;;;5.37;1.80;;;;;;;4.36;100.00;100525.84;5026760;28;20211;-73
2023/01/11 08:48:35;;;;;;;4.33;2.27;;;;;;;4.38;100.00;100528.44;5027068;28;20200;-74
2023/01/11 08:51:02;;;;;;;4.43;2.70;;;;;;;4.41;100.00;100525.84;5027248;28;20196;-74
2023/01/11 08:53:30;;;;;;;5.10;2.73;;;;;;;4.43;100.00;100524.13;5026905;28;20207;-75
2023/01/11 08:55:57;;;;;;;3.33;2.23;;;;;;;4.46;100.00;100530.13;5026636;28;20212;-75
2023/01/11 08:58:24;;;;;;;3.33;2.13;;;;;;;4.50;100.00;100520.66;5026046;28;20199;-75
2023/01/11 09:00:51;;;;;;;4.83;1.83;;;;;;;4.51;100.00;100510.31;5024850;28;20731;-73
2023/01/11 09:03:17;;;;;;;3.07;1.73;;;;;;;4.54;100.00;100517.22;5027166;28;20224;-75
2023/01/11 09:05:45;;;;;;;5.13;1.97;;;;;;;4.55;100.00;100514.59;5027030;28;20219;-72
2023/01/11 09:08:11;;;;;;;3.83;2.10;;;;;;;4.57;100.00;100519.78;5026922;28;20220;-74
2023/01/11 09:10:39;;;;;;;6.60;2.17;;;;;;;4.61;100.00;100512.88;5026465;28;20242;-75
2023/01/11 09:13:05;;;;;;;3.10;1.60;;;;;;;4.63;100.00;100514.59;5024862;28;20224;-74
2023/01/11 09:15:32;;;;;;;4.70;1.70;;;;;;;4.64;100.00;100507.69;5032146;28;20660;-75
2023/01/11 09:20:50;;;;;;;1.70;1.40;;;;;;;4.67;100.00;100516.31;5013218;28;20259;-75
2023/01/11 09:23:17;;;;;;;4.40;1.80;;;;;;;4.70;100.00;100511.13;5030603;28;20224;-75
2023/01/11 09:25:45;;;;;;;2.37;1.70;;;;;;;4.72;100.00;100514.56;5030439;28;20215;-74
2023/01/11 09:28:11;;;;;;;3.13;1.33;;;;;;;4.72;100.00;100509.41;5030710;28;20231;-75
2023/01/11 09:30:38;;;;;;;2.00;1.33;;;;;;;4.77;100.00;100516.25;5028700;28;20675;-75
2023/01/11 09:33:05;;;;;;;4.73;1.50;;;;;;;4.79;100.00;100512.81;5029720;28;22028;-75
2023/01/11 09:35:32;;;;;;;2.17;1.47;;;;;;;4.83;100.00;100517.09;5032508;28;20227;-76
2023/01/11 09:38:00;;;;;;;3.37;2.03;;;;;;;4.86;100.00;100514.50;5034395;28;20649;-74
2023/01/11 09:40:37;;;;;;;3.03;1.80;;;;;;;4.88;100.00;100512.78;5028570;28;20222;-74
2023/01/11 09:43:07;;;;;;;3.67;1.70;;;;;;;4.92;100.00;100508.44;5030768;28;20223;-74
2023/01/11 09:45:34;;;;;;;2.77;1.80;;;;;;;4.93;100.00;100511.03;5031080;28;20200;-75
2023/01/11 09:48:11;;;;;;;4.50;1.60;;;;;;;4.98;100.00;100498.09;5030384;28;20251;-73
2023/01/11 09:50:42;;;;;;;3.57;1.80;;;;;;;5.02;100.00;100496.34;5031018;28;20226;-73
2023/01/11 09:53:15;;;;;;;2.37;1.53;;;;;;;5.06;100.00;100491.13;5030598;28;20275;-74
2023/01/11 09:55:45;;;;;;;4.17;2.00;;;;;;;5.09;100.00;100485.09;5030190;28;20286;-74
2023/01/11 09:58:41;;;;;;;3.80;2.03;;;;;;;5.13;100.00;100484.22;5027648;28;20580;-73
2023/01/11 10:01:17;;;;;;;3.00;1.70;;;;;;;5.17;100.00;100474.72;5031984;28;20201;-73
2023/01/11 10:04:16;;;;;;;3.97;1.80;;;;;;;5.20;100.00;100472.97;5030304;28;20568;-75
2023/01/11 10:06:54;;;;;;;2.23;1.43;;;;;;;5.25;100.00;100468.63;5029154;28;20200;-75
2023/01/11 10:09:32;;;;;;;3.93;1.47;;;;;;;5.29;100.00;100465.19;5029441;28;20617;-74
2023/01/11 10:12:13;;;;;;;2.40;1.70;;;;;;;5.34;100.00;100459.94;5031339;28;20231;-73
2023/01/11 10:14:55;;;;;;;3.73;2.43;;;;;;;5.39;100.00;100462.50;5031787;28;20211;-75
2023/01/11 10:17:36;;;;;;;3.20;2.00;;;;;;;5.45;100.00;100459.88;5030600;28;20214;-75
2023/01/11 10:20:10;;;;;;;4.60;2.17;;;;;;;5.50;100.00;100465.88;5017563;28;20203;-73
2023/01/11 10:22:42;;;;;;;4.87;2.40;;;;;;;5.55;100.00;100458.06;5026745;28;20272;-74
2023/01/11 10:25:17;;;;;;;3.90;2.37;;;;;;;5.57;100.00;100449.44;5030201;28;20200;-74
2023/01/11 10:27:54;;;;;;;6.23;2.00;;;;;;;5.62;100.00;100441.63;5033160;28;20559;-74
2023/01/11 10:30:44;;;;;;;3.97;2.30;;;;;;;5.66;100.00;100444.19;5031518;28;20395;-75
2023/01/11 10:33:28;;;;;;;3.83;2.00;;;;;;;5.69;100.00;100426.03;5027355;28;20220;-73
2023/01/11 10:36:13;;;;;;;3.90;2.00;;;;;;;5.76;100.00;100423.41;5027994;28;20203;-75
2023/01/11 10:38:57;;;;;;;3.20;1.90;;;;;;;5.80;100.00;100432.84;5025769;28;20204;-75
2023/01/11 10:41:32;;;;;;;5.27;2.37;;;;;;;5.83;100.00;100430.22;5026261;28;20264;-75
2023/01/11 10:44:10;;;;;;;3.70;2.53;;;;;;;5.87;100.00;100437.97;5026152;28;20696;-75
2023/01/11 10:46:43;;;;;;;3.13;2.50;;;;;;;5.88;100.00;100428.47;5027560;28;20713;-74
2023/01/11 10:49:25;;;;;;;2.70;1.90;;;;;;;5.91;100.00;100430.16;5027969;28;20224;-73
2023/01/11 10:51:56;;;;;;;2.63;1.80;;;;;;;5.90;100.00;100434.47;5024450;28;20224;-75
2023/01/11 10:54:30;;;;;;;3.00;2.27;;;;;;;5.94;100.00;100422.34;5021243;28;20207;-75
2023/01/11 10:57:12;;;;;;;3.97;1.93;;;;;;;5.96;100.00;100420.66;5026237;28;20696;-73
2023/01/11 11:00:04;;;;;;;4.07;2.50;;;;;;;5.99;100.00;100405.94;5027102;28;20208;-74
2023/01/11 11:03:11;;;;;;;7.40;3.30;;;;;;;6.05;100.00;100412.78;5024539;28;20247;-75
2023/01/11 11:05:47;;;;;;;4.60;2.83;;;;;;;6.07;100.00;100411.91;5011300;28;20701;-75
2023/01/11 11:08:23;;;;;;;3.67;2.13;;;;;;;6.10;100.00;100410.16;5024473;28;20217;-75
2023/01/11 11:10:59;;;;;;;5.87;2.30;;;;;;;6.12;100.00;100406.69;5024513;28;20620;-75
2023/01/11 11:13:37;;;;;;;2.90;2.30;;;;;;;6.13;100.00;100416.16;5025695;28;20226;-75
2023/01/11 11:16:14;;;;;;;3.80;2.43;;;;;;;6.15;100.00;100405.78;5025729;28;20207;-74
2023/01/11 11:18:43;;;;;;;3.43;2.23;;;;;;;6.13;100.00;100410.97;5023325;28;20211;-73
2023/01/11 11:21:19;;;;;;;1.63;1.43;;;;;;;6.15;100.00;100401.44;5025976;28;20596;-74
2023/01/11 11:23:50;;;;;;;3.40;1.70;;;;;;;6.16;100.00;100398.00;5026878;28;20684;-74
2023/01/11 11:26:17;;;;;;;2.67;1.77;;;;;;;6.15;100.00;100393.69;5025723;28;20196;-74
2023/01/11 11:29:01;;;;;;;2.13;1.70;;;;;;;6.18;100.00;100383.28;5026641;28;20224;-75
2023/01/11 11:31:30;;;;;;;2.67;1.40;;;;;;;6.22;100.00;100381.53;5025565;28;20356;-75
2023/01/11 11:34:05;;;;;;;3.27;1.57;;;;;;;6.24;100.00;100380.66;5026877;28;20208;-73
2023/01/11 11:36:41;;;;;;;5.03;1.77;;;;;;;6.28;100.00;100375.41;5024583;28;20200;-75
2023/01/11 11:39:11;;;;;;;2.37;1.67;;;;;;;6.33;100.00;100378.81;5025745;28;20204;-75
2023/01/11 11:41:38;;;;;;;2.23;1.80;;;;;;;6.36;100.00;100368.41;5040905;23;20233;31
2023/01/11 11:44:14;;;;;;;3.93;2.10;;;;;;;6.39;100.00;100370.97;5005212;28;20216;-74
2023/01/11 11:46:41;;;;;;;1.47;1.37;;;;;;;6.42;100.00;100365.72;5009943;28;20206;-74
2023/01/11 11:49:16;;;;;;;1.97;1.70;;;;;;;6.44;100.00;100366.59;5009849;28;20278;-74
2023/01/11 11:51:45;;;;;;;2.10;1.70;;;;;;;6.44;100.00;100359.66;5009802;28;20229;-73
2023/01/11 11:54:20;;;;;;;3.77;1.87;;;;;;;6.44;100.00;100366.59;5005870;28;20216;-73
2023/01/11 11:56:47;;;;;;;2.17;1.87;;;;;;;6.43;100.00;100357.09;5026090;28;20564;-74
2023/01/11 11:59:18;;;;;;;1.43;1.30;;;;;;;6.43;100.00;100362.28;5010387;28;20194;-74
2023/01/11 12:01:48;;;;;;;1.37;1.23;;;;;;;6.40;100.00;100364.91;5006199;28;20222;-74